createdAt,value
2016-08-22T00:00:33.352Z,23.43
2016-08-22T00:01:32.699Z,23.47
2016-08-22T00:02:33.375Z,23.43
2016-08-22T00:03:34.081Z,23.4
2016-08-22T00:04:34.086Z,23.47
2016-08-22T00:05:33.586Z,23.43
2016-08-22T00:06:34.099Z,23.5
2016-08-22T00:07:34.969Z,23.4
2016-08-22T00:08:33.404Z,23.39
2016-08-22T00:09:33.411Z,23.39
2016-08-22T00:10:32.710Z,23.4
2016-08-22T00:11:32.725Z,23.42
2016-08-22T00:12:32.725Z,23.39
2016-08-22T00:13:33.439Z,23.43
2016-08-22T00:14:32.740Z,23.46
2016-08-22T00:15:33.453Z,23.46
2016-08-22T00:16:34.165Z,23.46
2016-08-22T00:17:33.467Z,23.47
2016-08-22T00:18:34.469Z,23.39
2016-08-22T00:19:33.478Z,23.38
2016-08-22T00:20:33.884Z,23.39
2016-08-22T00:21:33.496Z,23.39
2016-08-22T00:22:32.802Z,23.39
2016-08-22T00:23:34.225Z,23.46
2016-08-22T00:24:34.219Z,23.38
2016-08-22T00:25:34.228Z,23.42
2016-08-22T00:26:34.237Z,23.39
2016-08-22T00:27:32.826Z,23.39
2016-08-22T00:28:33.540Z,23.38
2016-08-22T00:29:35.209Z,23.5
2016-08-22T00:30:33.556Z,23.46
2016-08-22T00:31:34.378Z,23.39
2016-08-22T00:32:33.567Z,23.46
2016-08-22T00:33:33.575Z,23.43
2016-08-22T00:34:32.879Z,23.43
2016-08-22T00:35:34.296Z,23.39
2016-08-22T00:36:33.596Z,23.39
2016-08-22T00:37:33.606Z,23.46
2016-08-22T00:38:33.610Z,23.47
2016-08-22T00:39:33.617Z,23.42
2016-08-22T00:40:34.692Z,23.4
2016-08-22T00:41:33.631Z,23.46
2016-08-22T00:42:33.788Z,23.39
2016-08-22T00:43:34.352Z,23.43
2016-08-22T00:44:33.654Z,23.35
2016-08-22T00:45:33.660Z,23.38
2016-08-22T00:46:33.665Z,23.47
2016-08-22T00:47:34.377Z,23.36
2016-08-22T00:48:33.681Z,23.39
2016-08-22T00:49:32.979Z,23.42
2016-08-22T00:50:33.690Z,23.42
2016-08-22T00:51:34.550Z,23.36
2016-08-22T00:52:34.413Z,23.42
2016-08-22T00:53:34.567Z,23.36
2016-08-22T00:54:34.475Z,23.39
2016-08-22T00:55:35.244Z,23.42
2016-08-22T00:56:33.780Z,23.36
2016-08-22T00:57:33.795Z,23.39
2016-08-22T00:58:34.455Z,23.39
2016-08-22T00:59:33.046Z,23.42
2016-08-22T01:00:34.469Z,23.36
2016-08-22T01:01:33.211Z,23.36
2016-08-22T01:02:35.053Z,23.42
2016-08-22T01:03:33.785Z,23.42
2016-08-22T01:04:34.287Z,23.38
2016-08-22T01:05:33.794Z,23.33
2016-08-22T01:06:35.610Z,23.36
2016-08-22T01:07:33.101Z,23.36
2016-08-22T01:08:33.811Z,23.38
2016-08-22T01:09:33.113Z,23.39
2016-08-22T01:10:33.830Z,23.38
2016-08-22T01:11:34.543Z,23.4
2016-08-22T01:12:33.843Z,23.39
2016-08-22T01:13:34.605Z,23.4
2016-08-22T01:14:34.562Z,23.43
2016-08-22T01:15:34.574Z,23.39
2016-08-22T01:16:34.574Z,23.46
2016-08-22T01:17:33.180Z,23.46
2016-08-22T01:18:33.881Z,23.35
2016-08-22T01:19:33.906Z,23.38
2016-08-22T01:20:33.897Z,23.33
2016-08-22T01:21:34.611Z,23.43
2016-08-22T01:22:34.616Z,23.4
2016-08-22T01:23:33.923Z,23.42
2016-08-22T01:24:33.924Z,23.39
2016-08-22T01:25:34.644Z,23.36
2016-08-22T01:26:33.937Z,23.36
2016-08-22T01:27:34.649Z,23.35
2016-08-22T01:28:35.360Z,23.36
2016-08-22T01:29:33.961Z,23.36
2016-08-22T01:30:33.257Z,23.39
2016-08-22T01:31:34.688Z,23.38
2016-08-22T01:32:34.693Z,23.36
2016-08-22T01:33:34.689Z,23.33
2016-08-22T01:34:33.993Z,23.31
2016-08-22T01:35:34.701Z,23.28
2016-08-22T01:36:34.005Z,23.28
2016-08-22T01:37:34.015Z,23.31
2016-08-22T01:38:34.022Z,23.32
2016-08-22T01:39:35.434Z,23.36
2016-08-22T01:40:34.034Z,23.33
2016-08-22T01:41:33.331Z,23.33
2016-08-22T01:42:34.762Z,23.32
2016-08-22T01:43:34.055Z,23.32
2016-08-22T01:44:34.766Z,23.31
2016-08-22T01:45:34.776Z,23.35
2016-08-22T01:46:34.784Z,23.28
2016-08-22T01:47:34.787Z,23.28
2016-08-22T01:48:35.376Z,23.31
2016-08-22T01:49:34.802Z,23.23
2016-08-22T01:50:33.942Z,23.28
2016-08-22T01:51:34.822Z,23.31
2016-08-22T01:52:35.910Z,23.31
2016-08-22T01:53:34.120Z,23.32
2016-08-22T01:54:34.130Z,23.27
2016-08-22T01:55:34.139Z,23.32
2016-08-22T01:56:34.194Z,23.33
2016-08-22T01:57:34.157Z,23.36
2016-08-22T01:58:34.862Z,23.32
2016-08-22T01:59:33.463Z,23.32
2016-08-22T02:00:34.172Z,23.27
2016-08-22T02:01:33.918Z,23.36
2016-08-22T02:02:34.892Z,23.36
2016-08-22T02:03:35.949Z,23.28
2016-08-22T02:04:34.904Z,23.32
2016-08-22T02:05:34.911Z,23.33
2016-08-22T02:06:33.500Z,23.32
2016-08-22T02:07:34.216Z,23.31
2016-08-22T02:08:34.932Z,23.28
2016-08-22T02:09:34.936Z,23.33
2016-08-22T02:10:33.528Z,23.35
2016-08-22T02:11:34.953Z,23.31
2016-08-22T02:12:36.191Z,23.32
2016-08-22T02:13:34.964Z,23.27
2016-08-22T02:14:34.614Z,23.36
2016-08-22T02:15:33.618Z,23.35
2016-08-22T02:16:34.986Z,23.35
2016-08-22T02:17:33.580Z,23.35
2016-08-22T02:18:35.004Z,23.28
2016-08-22T02:19:34.305Z,23.35
2016-08-22T02:20:34.304Z,23.36
2016-08-22T02:21:35.017Z,23.36
2016-08-22T02:22:34.331Z,23.28
2016-08-22T02:23:34.327Z,23.28
2016-08-22T02:24:35.038Z,23.36
2016-08-22T02:25:34.989Z,23.36
2016-08-22T02:26:34.359Z,23.38
2016-08-22T02:27:33.644Z,23.33
2016-08-22T02:28:34.362Z,23.33
2016-08-22T02:29:34.366Z,23.32
2016-08-22T02:30:34.374Z,23.32
2016-08-22T02:31:33.670Z,23.25
2016-08-22T02:32:34.385Z,23.22
2016-08-22T02:33:35.105Z,23.28
2016-08-22T02:34:34.400Z,23.31
2016-08-22T02:35:33.699Z,23.32
2016-08-22T02:36:34.969Z,23.32
2016-08-22T02:37:33.713Z,23.23
2016-08-22T02:38:34.169Z,23.16
2016-08-22T02:39:33.728Z,23.28
2016-08-22T02:40:34.442Z,23.32
2016-08-22T02:41:35.154Z,23.25
2016-08-22T02:42:34.454Z,23.27
2016-08-22T02:43:35.171Z,23.19
2016-08-22T02:44:34.467Z,23.33
2016-08-22T02:45:35.201Z,23.27
2016-08-22T02:46:34.483Z,23.19
2016-08-22T02:47:35.334Z,23.22
2016-08-22T02:48:34.497Z,23.19
2016-08-22T02:49:34.508Z,23.25
2016-08-22T02:50:34.506Z,23.2
2016-08-22T02:51:34.528Z,23.22
2016-08-22T02:52:34.522Z,23.25
2016-08-22T02:53:34.531Z,23.17
2016-08-22T02:54:33.828Z,23.25
2016-08-22T02:55:35.249Z,23.12
2016-08-22T02:56:35.258Z,23.25
2016-08-22T02:57:34.606Z,23.16
2016-08-22T02:58:34.864Z,23.22
2016-08-22T02:59:35.279Z,23.22
2016-08-22T03:00:34.576Z,23.22
2016-08-22T03:01:33.879Z,23.23
2016-08-22T03:02:33.892Z,23.25
2016-08-22T03:03:34.650Z,23.23
2016-08-22T03:04:35.312Z,23.23
2016-08-22T03:05:34.612Z,23.27
2016-08-22T03:06:34.618Z,23.23
2016-08-22T03:07:35.334Z,23.2
2016-08-22T03:08:34.642Z,23.2
2016-08-22T03:09:35.088Z,23.25
2016-08-22T03:10:34.649Z,23.25
2016-08-22T03:11:36.482Z,23.17
2016-08-22T03:12:35.381Z,23.15
2016-08-22T03:13:34.672Z,23.19
2016-08-22T03:14:34.667Z,23.23
2016-08-22T03:15:35.437Z,23.2
2016-08-22T03:16:33.988Z,23.23
2016-08-22T03:17:33.982Z,23.17
2016-08-22T03:18:34.709Z,23.2
2016-08-22T03:19:35.413Z,23.23
2016-08-22T03:20:34.764Z,23.27
2016-08-22T03:21:34.721Z,23.32
2016-08-22T03:22:34.729Z,23.19
2016-08-22T03:23:34.731Z,23.23
2016-08-22T03:24:35.192Z,23.31
2016-08-22T03:25:34.745Z,23.31
2016-08-22T03:26:35.457Z,23.2
2016-08-22T03:27:34.051Z,23.27
2016-08-22T03:28:35.472Z,23.27
2016-08-22T03:29:34.065Z,23.17
2016-08-22T03:30:35.488Z,23.17
2016-08-22T03:31:35.593Z,23.2
2016-08-22T03:32:35.498Z,23.2
2016-08-22T03:33:34.800Z,23.23
2016-08-22T03:34:34.102Z,23.2
2016-08-22T03:35:35.519Z,23.2
2016-08-22T03:36:34.823Z,23.12
2016-08-22T03:37:34.830Z,23.17
2016-08-22T03:38:35.540Z,23.16
2016-08-22T03:39:34.855Z,23.16
2016-08-22T03:40:34.849Z,23.17
2016-08-22T03:41:34.851Z,23.22
2016-08-22T03:42:34.878Z,23.1
2016-08-22T03:43:34.871Z,23.25
2016-08-22T03:44:36.585Z,23.16
2016-08-22T03:45:34.880Z,23.28
2016-08-22T03:46:35.751Z,23.22
2016-08-22T03:47:35.612Z,23.22
2016-08-22T03:48:35.607Z,23.13
2016-08-22T03:49:34.911Z,23.17
2016-08-22T03:50:35.625Z,23.2
2016-08-22T03:51:35.630Z,23.23
2016-08-22T03:52:34.224Z,23.32
2016-08-22T03:53:35.645Z,23.15
2016-08-22T03:54:35.648Z,23.16
2016-08-22T03:55:36.211Z,23.2
2016-08-22T03:56:34.956Z,23.22
2016-08-22T03:57:35.668Z,23.22
2016-08-22T03:58:34.970Z,23.22
2016-08-22T03:59:34.977Z,23.2
2016-08-22T04:00:35.038Z,23.22
2016-08-22T04:01:34.990Z,23.23
2016-08-22T04:02:35.147Z,23.28
2016-08-22T04:03:35.003Z,23.22
2016-08-22T04:04:35.717Z,23.2
2016-08-22T04:05:35.018Z,23.17
2016-08-22T04:06:34.320Z,23.12
2016-08-22T04:07:35.028Z,23.19
2016-08-22T04:08:36.098Z,23.17
2016-08-22T04:09:35.053Z,23.19
2016-08-22T04:10:35.050Z,23.15
2016-08-22T04:11:35.059Z,23.27
2016-08-22T04:12:35.771Z,23.27
2016-08-22T04:13:34.362Z,23.22
2016-08-22T04:14:35.794Z,23.17
2016-08-22T04:15:35.795Z,23.22
2016-08-22T04:16:35.900Z,23.19
2016-08-22T04:17:36.383Z,23.17
2016-08-22T04:18:35.812Z,23.19
2016-08-22T04:19:35.110Z,23.31
2016-08-22T04:20:35.827Z,23.13
2016-08-22T04:21:36.932Z,23.23
2016-08-22T04:22:35.895Z,23.17
2016-08-22T04:23:35.846Z,23.19
2016-08-22T04:24:35.153Z,23.16
2016-08-22T04:25:35.151Z,23.19
2016-08-22T04:26:35.874Z,23.2
2016-08-22T04:27:35.873Z,23.22
2016-08-22T04:28:35.179Z,23.15
2016-08-22T04:29:35.178Z,23.27
2016-08-22T04:30:35.438Z,23.19
2016-08-22T04:31:35.193Z,23.27
2016-08-22T04:32:36.729Z,23.13
2016-08-22T04:33:34.503Z,23.27
2016-08-22T04:34:35.919Z,23.19
2016-08-22T04:35:35.218Z,23.16
2016-08-22T04:36:35.226Z,23.16
2016-08-22T04:37:35.232Z,23.16
2016-08-22T04:38:35.947Z,23.28
2016-08-22T04:39:34.547Z,23.16
2016-08-22T04:40:35.961Z,23.25
2016-08-22T04:41:34.953Z,23.15
2016-08-22T04:42:35.993Z,23.22
2016-08-22T04:43:34.567Z,23.17
2016-08-22T04:44:35.285Z,23.19
2016-08-22T04:45:35.998Z,23.22
2016-08-22T04:46:34.600Z,23.27
2016-08-22T04:47:36.006Z,23.15
2016-08-22T04:48:35.309Z,23.2
2016-08-22T04:49:34.615Z,23.23
2016-08-22T04:50:34.614Z,23.22
2016-08-22T04:51:35.329Z,23.19
2016-08-22T04:52:35.534Z,23.15
2016-08-22T04:53:36.055Z,23.25
2016-08-22T04:54:36.895Z,23.22
2016-08-22T04:55:34.654Z,23.19
2016-08-22T04:56:36.070Z,23.19
2016-08-22T04:57:36.077Z,23.15
2016-08-22T04:58:35.375Z,23.16
2016-08-22T04:59:35.381Z,23.17
2016-08-22T05:00:36.105Z,23.2
2016-08-22T05:01:35.395Z,23.15
2016-08-22T05:02:35.451Z,23.1
2016-08-22T05:03:35.203Z,23.15
2016-08-22T05:04:36.123Z,23.1
2016-08-22T05:05:36.625Z,23.22
2016-08-22T05:06:34.722Z,23.16
2016-08-22T05:07:35.737Z,23.25
2016-08-22T05:08:35.443Z,23.25
2016-08-22T05:09:36.155Z,23.1
2016-08-22T05:10:35.455Z,23.17
2016-08-22T05:11:34.756Z,23.17
2016-08-22T05:12:36.175Z,23.09
2016-08-22T05:13:36.196Z,23.13
2016-08-22T05:14:36.189Z,23.15
2016-08-22T05:15:35.486Z,23.27
2016-08-22T05:16:36.817Z,23.19
2016-08-22T05:17:35.559Z,23.15
2016-08-22T05:18:35.513Z,23.19
2016-08-22T05:19:35.517Z,23.19
2016-08-22T05:20:34.814Z,23.15
2016-08-22T05:21:35.533Z,23.15
2016-08-22T05:22:35.590Z,23.31
2016-08-22T05:23:36.251Z,23.23
2016-08-22T05:24:35.550Z,23.19
2016-08-22T05:25:35.605Z,23.17
2016-08-22T05:26:35.562Z,23.22
2016-08-22T05:27:37.026Z,23.19
2016-08-22T05:28:35.577Z,23.17
2016-08-22T05:29:35.582Z,23.19
2016-08-22T05:30:35.593Z,23.12
2016-08-22T05:31:35.598Z,23.19
2016-08-22T05:32:34.899Z,23.17
2016-08-22T05:33:35.612Z,23.1
2016-08-22T05:34:35.621Z,23.12
2016-08-22T05:35:34.918Z,23.22
2016-08-22T05:36:34.926Z,23.17
2016-08-22T05:37:36.346Z,23.2
2016-08-22T05:38:37.153Z,23.25
2016-08-22T05:39:36.358Z,23.17
2016-08-22T05:40:35.659Z,23.28
2016-08-22T05:41:35.680Z,23.27
2016-08-22T05:42:36.380Z,23.17
2016-08-22T05:43:34.977Z,23.23
2016-08-22T05:44:36.391Z,23.17
2016-08-22T05:45:36.399Z,23.19
2016-08-22T05:46:36.403Z,23.27
2016-08-22T05:47:35.706Z,23.15
2016-08-22T05:48:35.711Z,23.22
2016-08-22T05:49:35.917Z,23.2
2016-08-22T05:50:36.433Z,23.28
2016-08-22T05:51:37.210Z,23.22
2016-08-22T05:52:35.736Z,23.25
2016-08-22T05:53:35.037Z,23.17
2016-08-22T05:54:36.460Z,23.22
2016-08-22T05:55:35.757Z,23.31
2016-08-22T05:56:35.772Z,23.16
2016-08-22T05:57:35.773Z,23.22
2016-08-22T05:58:36.485Z,23.27
2016-08-22T05:59:36.491Z,23.23
2016-08-22T06:00:35.951Z,23.25
2016-08-22T06:01:36.506Z,23.15
2016-08-22T06:02:37.386Z,23.23
2016-08-22T06:03:36.522Z,23.19
2016-08-22T06:04:36.625Z,23.22
2016-08-22T06:05:36.580Z,23.31
2016-08-22T06:06:35.832Z,23.25
2016-08-22T06:07:36.547Z,23.17
2016-08-22T06:08:35.844Z,23.23
2016-08-22T06:09:35.857Z,23.23
2016-08-22T06:10:35.867Z,23.22
2016-08-22T06:11:35.862Z,23.17
2016-08-22T06:12:36.585Z,23.27
2016-08-22T06:13:35.174Z,23.23
2016-08-22T06:14:35.179Z,23.22
2016-08-22T06:15:36.094Z,23.25
2016-08-22T06:16:35.903Z,23.17
2016-08-22T06:17:35.958Z,23.22
2016-08-22T06:18:35.913Z,23.25
2016-08-22T06:19:36.628Z,23.19
2016-08-22T06:20:35.928Z,23.13
2016-08-22T06:21:35.932Z,23.23
2016-08-22T06:22:35.943Z,23.12
2016-08-22T06:23:35.998Z,23.22
2016-08-22T06:24:35.301Z,23.23
2016-08-22T06:25:35.256Z,23.22
2016-08-22T06:26:35.909Z,23.17
2016-08-22T06:27:36.680Z,23.12
2016-08-22T06:28:35.983Z,23.22
2016-08-22T06:29:36.694Z,23.13
2016-08-22T06:30:35.288Z,23.27
2016-08-22T06:31:36.003Z,23.17
2016-08-22T06:32:36.717Z,23.13
2016-08-22T06:33:36.015Z,23.17
2016-08-22T06:34:36.022Z,23.23
2016-08-22T06:35:37.191Z,23.1
2016-08-22T06:36:36.741Z,23.22
2016-08-22T06:37:36.494Z,23.15
2016-08-22T06:38:36.807Z,23.23
2016-08-22T06:39:37.814Z,23.22
2016-08-22T06:40:36.061Z,23.22
2016-08-22T06:41:36.069Z,23.22
2016-08-22T06:42:36.076Z,23.17
2016-08-22T06:43:36.790Z,23.22
2016-08-22T06:44:36.091Z,23.23
2016-08-22T06:45:36.097Z,23.31
2016-08-22T06:46:36.103Z,23.2
2016-08-22T06:47:36.111Z,23.2
2016-08-22T06:48:36.973Z,23.22
2016-08-22T06:49:36.881Z,23.25
2016-08-22T06:50:37.094Z,23.19
2016-08-22T06:51:36.142Z,23.22
2016-08-22T06:52:36.849Z,23.23
2016-08-22T06:53:36.859Z,23.22
2016-08-22T06:54:36.160Z,23.25
2016-08-22T06:55:36.870Z,23.32
2016-08-22T06:56:35.461Z,23.32
2016-08-22T06:57:36.179Z,23.33
2016-08-22T06:58:35.475Z,23.36
2016-08-22T06:59:36.194Z,23.27
2016-08-22T07:00:36.199Z,23.36
2016-08-22T07:01:38.022Z,23.4
2016-08-22T07:02:36.214Z,23.46
2016-08-22T07:03:36.925Z,23.43
2016-08-22T07:04:36.932Z,23.33
2016-08-22T07:05:36.243Z,23.38
2016-08-22T07:06:37.000Z,23.42
2016-08-22T07:07:36.955Z,23.4
2016-08-22T07:08:36.258Z,23.38
2016-08-22T07:09:36.263Z,23.39
2016-08-22T07:10:36.265Z,23.4
2016-08-22T07:11:35.570Z,23.47
2016-08-22T07:12:36.832Z,23.43
2016-08-22T07:13:35.582Z,23.39
2016-08-22T07:14:36.297Z,23.47
2016-08-22T07:15:36.303Z,23.42
2016-08-22T07:16:37.018Z,23.42
2016-08-22T07:17:36.314Z,23.42
2016-08-22T07:18:36.336Z,23.38
2016-08-22T07:19:36.331Z,23.38
2016-08-22T07:20:36.389Z,23.38
2016-08-22T07:21:35.638Z,23.36
2016-08-22T07:22:35.644Z,23.27
2016-08-22T07:23:36.906Z,23.32
2016-08-22T07:24:36.378Z,23.28
2016-08-22T07:25:36.374Z,23.32
2016-08-22T07:26:36.380Z,23.35
2016-08-22T07:27:36.388Z,23.32
2016-08-22T07:28:35.684Z,23.27
2016-08-22T07:29:36.400Z,23.31
2016-08-22T07:30:36.407Z,23.27
2016-08-22T07:31:36.431Z,23.33
2016-08-22T07:32:36.423Z,23.33
2016-08-22T07:33:37.139Z,23.33
2016-08-22T07:34:37.499Z,23.31
2016-08-22T07:35:36.439Z,23.31
2016-08-22T07:36:35.839Z,23.35
2016-08-22T07:37:37.179Z,23.27
2016-08-22T07:38:37.168Z,23.35
2016-08-22T07:39:35.762Z,23.27
2016-08-22T07:40:36.479Z,23.31
2016-08-22T07:41:36.482Z,23.27
2016-08-22T07:42:35.783Z,23.28
2016-08-22T07:43:36.499Z,23.32
2016-08-22T07:44:35.798Z,23.33
2016-08-22T07:45:36.905Z,23.27
2016-08-22T07:46:35.812Z,23.27
2016-08-22T07:47:35.822Z,23.31
2016-08-22T07:48:37.238Z,23.31
2016-08-22T07:49:36.544Z,23.31
2016-08-22T07:50:37.255Z,23.32
2016-08-22T07:51:36.552Z,23.35
2016-08-22T07:52:35.849Z,23.28
2016-08-22T07:53:35.860Z,23.32
2016-08-22T07:54:37.331Z,23.33
2016-08-22T07:55:36.582Z,23.35
2016-08-22T07:56:37.498Z,23.35
2016-08-22T07:57:36.595Z,23.33
2016-08-22T07:58:36.602Z,23.27
2016-08-22T07:59:36.609Z,23.35
2016-08-22T08:00:36.616Z,23.33
2016-08-22T08:01:37.331Z,23.31
2016-08-22T08:02:36.629Z,23.35
2016-08-22T08:03:37.350Z,23.32
2016-08-22T08:04:37.350Z,23.28
2016-08-22T08:05:37.357Z,23.38
2016-08-22T08:06:36.655Z,23.33
2016-08-22T08:07:36.763Z,23.31
2016-08-22T08:08:37.383Z,23.2
2016-08-22T08:09:35.969Z,23.32
2016-08-22T08:10:35.978Z,23.33
2016-08-22T08:11:37.410Z,23.32
2016-08-22T08:12:37.453Z,23.32
2016-08-22T08:13:35.999Z,23.32
2016-08-22T08:14:36.008Z,23.27
2016-08-22T08:15:36.715Z,23.35
2016-08-22T08:16:37.432Z,23.36
2016-08-22T08:17:37.492Z,23.35
2016-08-22T08:18:37.534Z,23.28
2016-08-22T08:19:36.745Z,23.33
2016-08-22T08:20:38.118Z,23.23
2016-08-22T08:21:37.517Z,23.31
2016-08-22T08:22:36.056Z,23.16
2016-08-22T08:23:36.771Z,23.19
2016-08-22T08:24:36.074Z,23.32
2016-08-22T08:25:36.783Z,23.31
2016-08-22T08:26:36.086Z,23.28
2016-08-22T08:27:36.093Z,23.32
2016-08-22T08:28:37.565Z,23.28
2016-08-22T08:29:36.306Z,23.35
2016-08-22T08:30:37.529Z,23.27
2016-08-22T08:31:38.548Z,23.36
2016-08-22T08:32:36.888Z,23.31
2016-08-22T08:33:37.093Z,23.38
2016-08-22T08:34:36.849Z,23.31
2016-08-22T08:35:37.563Z,23.27
2016-08-22T08:36:36.162Z,23.31
2016-08-22T08:37:36.867Z,23.31
2016-08-22T08:38:36.875Z,23.33
2016-08-22T08:39:37.591Z,23.28
2016-08-22T08:40:36.941Z,23.28
2016-08-22T08:41:36.893Z,23.23
2016-08-22T08:42:36.908Z,23.31
2016-08-22T08:43:37.618Z,23.2
2016-08-22T08:44:36.920Z,23.32
2016-08-22T08:45:36.971Z,23.42
2016-08-22T08:46:36.219Z,23.36
2016-08-22T08:47:36.936Z,23.38
2016-08-22T08:48:36.937Z,23.4
2016-08-22T08:49:37.661Z,23.35
2016-08-22T08:50:36.268Z,23.4
2016-08-22T08:51:36.253Z,23.36
2016-08-22T08:52:36.971Z,23.4
2016-08-22T08:53:37.684Z,23.43
2016-08-22T08:54:36.992Z,23.48
2016-08-22T08:55:38.458Z,23.39
2016-08-22T08:56:37.004Z,23.36
2016-08-22T08:57:37.713Z,23.4
2016-08-22T08:58:36.302Z,23.42
2016-08-22T08:59:37.068Z,23.42
2016-08-22T09:00:37.025Z,23.43
2016-08-22T09:01:36.325Z,23.4
2016-08-22T09:02:37.084Z,23.42
2016-08-22T09:03:37.103Z,23.39
2016-08-22T09:04:37.055Z,23.43
2016-08-22T09:05:37.113Z,23.48
2016-08-22T09:06:38.117Z,23.5
2016-08-22T09:07:37.072Z,23.54
2016-08-22T09:08:37.786Z,23.46
2016-08-22T09:09:37.788Z,23.47
2016-08-22T09:10:37.091Z,23.4
2016-08-22T09:11:37.100Z,23.36
2016-08-22T09:12:37.105Z,23.35
2016-08-22T09:13:37.113Z,23.36
2016-08-22T09:14:37.840Z,23.35
2016-08-22T09:15:38.811Z,23.38
2016-08-22T09:16:37.130Z,23.36
2016-08-22T09:17:38.192Z,23.31
2016-08-22T09:18:37.197Z,23.28
2016-08-22T09:19:38.782Z,23.28
2016-08-22T09:20:37.157Z,23.32
2016-08-22T09:21:37.925Z,23.33
2016-08-22T09:22:37.880Z,23.38
2016-08-22T09:23:37.177Z,23.39
2016-08-22T09:24:37.892Z,23.31
2016-08-22T09:25:37.191Z,23.42
2016-08-22T09:26:37.199Z,23.39
2016-08-22T09:27:37.205Z,23.42
2016-08-22T09:28:37.810Z,23.39
2016-08-22T09:29:37.218Z,23.4
2016-08-22T09:30:39.209Z,23.38
2016-08-22T09:31:36.526Z,23.47
2016-08-22T09:32:37.241Z,23.48
2016-08-22T09:33:37.247Z,23.5
2016-08-22T09:34:37.962Z,23.48
2016-08-22T09:35:36.561Z,23.42
2016-08-22T09:36:37.265Z,23.39
2016-08-22T09:37:36.568Z,23.47
2016-08-22T09:38:37.277Z,23.38
2016-08-22T09:39:37.991Z,23.39
2016-08-22T09:40:37.999Z,23.32
2016-08-22T09:41:38.476Z,23.35
2016-08-22T09:42:36.597Z,23.31
2016-08-22T09:43:37.328Z,23.28
2016-08-22T09:44:37.322Z,23.36
2016-08-22T09:45:37.325Z,23.32
2016-08-22T09:46:36.674Z,23.32
2016-08-22T09:47:37.654Z,23.27
2016-08-22T09:48:38.052Z,23.28
2016-08-22T09:49:37.354Z,23.32
2016-08-22T09:50:37.361Z,23.31
2016-08-22T09:51:37.366Z,23.36
2016-08-22T09:52:38.790Z,23.28
2016-08-22T09:53:36.673Z,23.27
2016-08-22T09:54:36.693Z,23.28
2016-08-22T09:55:38.103Z,23.28
2016-08-22T09:56:37.402Z,23.32
2016-08-22T09:57:38.178Z,23.27
2016-08-22T09:58:36.874Z,23.39
2016-08-22T09:59:38.180Z,23.46
2016-08-22T10:00:36.719Z,23.5
2016-08-22T10:01:38.143Z,23.51
2016-08-22T10:02:37.447Z,23.51
2016-08-22T10:03:38.190Z,23.57
2016-08-22T10:04:37.504Z,23.55
2016-08-22T10:05:37.454Z,23.48
2016-08-22T10:06:36.763Z,23.6
2016-08-22T10:07:38.182Z,23.6
2016-08-22T10:08:38.188Z,23.55
2016-08-22T10:09:37.487Z,23.54
2016-08-22T10:10:38.201Z,23.53
2016-08-22T10:11:37.497Z,23.48
2016-08-22T10:12:38.270Z,23.51
2016-08-22T10:13:37.512Z,23.6
2016-08-22T10:14:38.420Z,23.48
2016-08-22T10:15:37.525Z,23.48
2016-08-22T10:16:37.679Z,23.4
2016-08-22T10:17:37.535Z,23.46
2016-08-22T10:18:36.839Z,23.42
2016-08-22T10:19:38.262Z,23.39
2016-08-22T10:20:38.261Z,23.36
2016-08-22T10:21:37.565Z,23.4
2016-08-22T10:22:38.341Z,23.36
2016-08-22T10:23:36.868Z,23.36
2016-08-22T10:24:36.877Z,23.36
2016-08-22T10:25:38.691Z,23.39
2016-08-22T10:26:37.594Z,23.36
2016-08-22T10:27:39.230Z,23.38
2016-08-22T10:28:37.616Z,23.35
2016-08-22T10:29:37.618Z,23.39
2016-08-22T10:30:37.626Z,23.39
2016-08-22T10:31:37.630Z,23.38
2016-08-22T10:32:36.938Z,23.32
2016-08-22T10:33:37.644Z,23.35
2016-08-22T10:34:37.654Z,23.38
2016-08-22T10:35:38.368Z,23.38
2016-08-22T10:36:38.876Z,23.4
2016-08-22T10:37:37.670Z,23.5
2016-08-22T10:38:39.660Z,23.48
2016-08-22T10:39:38.458Z,23.5
2016-08-22T10:40:37.690Z,23.61
2016-08-22T10:41:37.798Z,23.53
2016-08-22T10:42:37.705Z,23.53
2016-08-22T10:43:37.711Z,23.54
2016-08-22T10:44:37.721Z,23.58
2016-08-22T10:45:38.428Z,23.5
2016-08-22T10:46:37.732Z,23.53
2016-08-22T10:47:38.647Z,23.57
2016-08-22T10:48:37.033Z,23.51
2016-08-22T10:49:37.747Z,23.54
2016-08-22T10:50:37.059Z,23.58
2016-08-22T10:51:38.413Z,23.51
2016-08-22T10:52:38.477Z,23.48
2016-08-22T10:53:37.121Z,23.51
2016-08-22T10:54:37.833Z,23.54
2016-08-22T10:55:37.789Z,23.51
2016-08-22T10:56:38.511Z,23.6
2016-08-22T10:57:38.517Z,23.54
2016-08-22T10:58:38.868Z,23.51
2016-08-22T10:59:37.867Z,23.53
2016-08-22T11:00:39.657Z,23.55
2016-08-22T11:01:37.893Z,23.55
2016-08-22T11:02:38.951Z,23.53
2016-08-22T11:03:38.550Z,23.53
2016-08-22T11:04:38.559Z,23.46
2016-08-22T11:05:38.573Z,23.42
2016-08-22T11:06:38.572Z,23.54
2016-08-22T11:07:37.876Z,23.48
2016-08-22T11:08:38.585Z,23.51
2016-08-22T11:09:37.177Z,23.55
2016-08-22T11:10:37.184Z,23.48
2016-08-22T11:11:37.899Z,23.55
2016-08-22T11:12:38.615Z,23.53
2016-08-22T11:13:38.404Z,23.51
2016-08-22T11:14:37.919Z,23.46
2016-08-22T11:15:38.632Z,23.51
2016-08-22T11:16:38.639Z,23.43
2016-08-22T11:17:37.940Z,23.53
2016-08-22T11:18:37.946Z,23.55
2016-08-22T11:19:37.958Z,23.48
2016-08-22T11:20:37.961Z,23.54
2016-08-22T11:21:38.677Z,23.48
2016-08-22T11:22:37.967Z,23.51
2016-08-22T11:23:37.981Z,23.51
2016-08-22T11:24:38.691Z,23.47
2016-08-22T11:25:38.704Z,23.47
2016-08-22T11:26:37.998Z,23.55
2016-08-22T11:27:38.011Z,23.51
2016-08-22T11:28:38.015Z,23.54
2016-08-22T11:29:38.727Z,23.54
2016-08-22T11:30:38.789Z,23.53
2016-08-22T11:31:38.030Z,23.55
2016-08-22T11:32:38.040Z,23.53
2016-08-22T11:33:38.947Z,23.57
2016-08-22T11:34:37.395Z,23.51
2016-08-22T11:35:38.210Z,23.46
2016-08-22T11:36:38.779Z,23.46
2016-08-22T11:37:38.071Z,23.48
2016-08-22T11:38:37.372Z,23.53
2016-08-22T11:39:37.381Z,23.55
2016-08-22T11:40:38.591Z,23.51
2016-08-22T11:41:38.155Z,23.54
2016-08-22T11:42:38.813Z,23.55
2016-08-22T11:43:38.114Z,23.46
2016-08-22T11:44:38.144Z,23.55
2016-08-22T11:45:38.842Z,23.47
2016-08-22T11:46:37.878Z,23.48
2016-08-22T11:47:37.441Z,23.54
2016-08-22T11:48:39.955Z,23.51
2016-08-22T11:49:38.155Z,23.46
2016-08-22T11:50:38.161Z,23.43
2016-08-22T11:51:38.934Z,23.43
2016-08-22T11:52:38.184Z,23.48
2016-08-22T11:53:38.945Z,23.51
2016-08-22T11:54:38.191Z,23.55
2016-08-22T11:55:38.910Z,23.48
2016-08-22T11:56:37.513Z,23.48
2016-08-22T11:57:38.211Z,23.5
2016-08-22T11:58:38.218Z,23.47
2016-08-22T11:59:39.377Z,23.53
2016-08-22T12:00:38.233Z,23.54
2016-08-22T12:01:37.531Z,23.51
2016-08-22T12:02:38.247Z,23.5
2016-08-22T12:03:38.253Z,23.55
2016-08-22T12:04:39.025Z,23.53
2016-08-22T12:05:37.611Z,23.51
2016-08-22T12:06:38.270Z,23.53
2016-08-22T12:07:38.296Z,23.48
2016-08-22T12:08:38.993Z,23.54
2016-08-22T12:09:38.291Z,23.57
2016-08-22T12:10:39.052Z,23.53
2016-08-22T12:11:38.309Z,23.55
2016-08-22T12:12:38.314Z,23.58
2016-08-22T12:13:37.614Z,23.61
2016-08-22T12:14:38.380Z,23.53
2016-08-22T12:15:38.334Z,23.53
2016-08-22T12:16:38.341Z,23.57
2016-08-22T12:17:39.107Z,23.63
2016-08-22T12:18:37.645Z,23.54
2016-08-22T12:19:38.364Z,23.46
2016-08-22T12:20:37.673Z,23.54
2016-08-22T12:21:39.168Z,23.48
2016-08-22T12:22:38.432Z,23.53
2016-08-22T12:23:38.396Z,23.55
2016-08-22T12:24:39.118Z,23.6
2016-08-22T12:25:37.698Z,23.58
2016-08-22T12:26:37.709Z,23.51
2016-08-22T12:27:39.123Z,23.57
2016-08-22T12:28:38.427Z,23.53
2016-08-22T12:29:38.482Z,23.53
2016-08-22T12:30:40.119Z,23.53
2016-08-22T12:31:38.447Z,23.55
2016-08-22T12:32:39.472Z,23.58
2016-08-22T12:33:37.755Z,23.58
2016-08-22T12:34:38.518Z,23.6
2016-08-22T12:35:38.474Z,23.51
2016-08-22T12:36:39.191Z,23.6
2016-08-22T12:37:38.489Z,23.6
2016-08-22T12:38:39.205Z,23.51
2016-08-22T12:39:37.793Z,23.5
2016-08-22T12:40:37.802Z,23.53
2016-08-22T12:41:38.862Z,23.51
2016-08-22T12:42:38.523Z,23.53
2016-08-22T12:43:39.030Z,23.48
2016-08-22T12:44:39.297Z,23.53
2016-08-22T12:45:38.594Z,23.57
2016-08-22T12:46:39.306Z,23.48
2016-08-22T12:47:38.559Z,23.51
2016-08-22T12:48:38.563Z,23.53
2016-08-22T12:49:38.571Z,23.58
2016-08-22T12:50:39.285Z,23.5
2016-08-22T12:51:39.340Z,23.57
2016-08-22T12:52:38.590Z,23.51
2016-08-22T12:53:39.304Z,23.55
2016-08-22T12:54:39.205Z,23.55